sensor_id;sensor_type;location;lat;lon;timestamp;pressure;altitude;pressure_sealevel;temperature;humidity
13434;BME280;6789;47.678;9.158;2022-09-03T00:02:06;96423.59;;;16.86;100.00
13434;BME280;6789;47.678;9.158;2022-09-03T00:13:58;96429.97;;;16.80;100.00
13434;BME280;6789;47.678;9.158;2022-09-03T00:19:27;96436.09;;;16.70;100.00
13434;BME280;6789;47.678;9.158;2022-09-03T00:25:28;96428.59;;;16.87;100.00
13434;BME280;6789;47.678;9.158;2022-09-03T00:30:58;96432.00;;;17.03;100.00
13434;BME280;6789;47.678;9.158;2022-09-03T00:36:42;96427.25;;;17.00;100.00
13434;BME280;6789;47.678;9.158;2022-09-03T00:48:30;96430.94;;;17.04;100.00
13434;BME280;6789;47.678;9.158;2022-09-03T00:54:29;96448.69;;;17.08;100.00
13434;BME280;6789;47.678;9.158;2022-09-03T01:00:14;96450.47;;;17.32;100.00
13434;BME280;6789;47.678;9.158;2022-09-03T01:11:05;96459.50;;;17.26;100.00
13434;BME280;6789;47.678;9.158;2022-09-03T01:49:17;96490.41;;;17.51;100.00
13434;BME280;6789;47.678;9.158;2022-09-03T01:59:47;96482.69;;;17.54;100.00
13434;BME280;6789;47.678;9.158;2022-09-03T02:05:13;96487.22;;;17.49;100.00
13434;BME280;6789;47.678;9.158;2022-09-03T02:10:43;96488.25;;;17.58;100.00
13434;BME280;6789;47.678;9.158;2022-09-03T02:16:22;96476.00;;;17.62;100.00
13434;BME280;6789;47.678;9.158;2022-09-03T02:21:20;96482.59;;;17.74;100.00
13434;BME280;6789;47.678;9.158;2022-09-03T02:26:18;96482.41;;;17.56;100.00
13434;BME280;6789;47.678;9.158;2022-09-03T02:31:27;96493.22;;;17.64;99.90
13434;BME280;6789;47.678;9.158;2022-09-03T02:36:44;96482.13;;;17.62;99.78
13434;BME280;6789;47.678;9.158;2022-09-03T02:42:01;96473.88;;;17.64;99.71
13434;BME280;6789;47.678;9.158;2022-09-03T02:46:58;96469.34;;;17.69;99.85
13434;BME280;6789;47.678;9.158;2022-09-03T02:51:50;96476.00;;;17.62;100.00
13434;BME280;6789;47.678;9.158;2022-09-03T02:56:56;96470.69;;;17.62;100.00
13434;BME280;6789;47.678;9.158;2022-09-03T03:01:48;96480.84;;;17.55;100.00
13434;BME280;6789;47.678;9.158;2022-09-03T03:06:57;96499.13;;;17.56;100.00
13434;BME280;6789;47.678;9.158;2022-09-03T03:12:03;96504.88;;;17.73;100.00
13434;BME280;6789;47.678;9.158;2022-09-03T03:17:12;96502.31;;;17.53;100.00
13434;BME280;6789;47.678;9.158;2022-09-03T03:22:07;96499.53;;;17.30;100.00
13434;BME280;6789;47.678;9.158;2022-09-03T03:27:33;96512.75;;;17.25;100.00
13434;BME280;6789;47.678;9.158;2022-09-03T03:32:27;96515.66;;;17.23;100.00
13434;BME280;6789;47.678;9.158;2022-09-03T03:37:49;96515.94;;;17.22;100.00
13434;BME280;6789;47.678;9.158;2022-09-03T03:42:41;96508.00;;;17.22;100.00
13434;BME280;6789;47.678;9.158;2022-09-03T03:48:24;96518.59;;;17.22;100.00
13434;BME280;6789;47.678;9.158;2022-09-03T03:54:33;96526.81;;;17.30;100.00
13434;BME280;6789;47.678;9.158;2022-09-03T03:59:41;96535.78;;;17.44;100.00
13434;BME280;6789;47.678;9.158;2022-09-03T04:04:34;96531.84;;;17.27;100.00
13434;BME280;6789;47.678;9.158;2022-09-03T04:09:40;96538.75;;;17.28;100.00
13434;BME280;6789;47.678;9.158;2022-09-03T04:14:58;96557.56;;;17.16;100.00
13434;BME280;6789;47.678;9.158;2022-09-03T04:20:06;96569.50;;;17.14;100.00
13434;BME280;6789;47.678;9.158;2022-09-03T04:25:19;96560.72;;;17.33;100.00
13434;BME280;6789;47.678;9.158;2022-09-03T04:30:36;96552.28;;;17.26;100.00
13434;BME280;6789;47.678;9.158;2022-09-03T04:35:44;96563.69;;;17.17;100.00
13434;BME280;6789;47.678;9.158;2022-09-03T04:40:54;96573.75;;;17.10;100.00
13434;BME280;6789;47.678;9.158;2022-09-03T04:46:12;96579.06;;;17.10;100.00
13434;BME280;6789;47.678;9.158;2022-09-03T04:51:28;96587.78;;;17.15;100.00
13434;BME280;6789;47.678;9.158;2022-09-03T04:56:38;96582.22;;;17.17;100.00
13434;BME280;6789;47.678;9.158;2022-09-03T05:01:45;96579.84;;;17.11;100.00
13434;BME280;6789;47.678;9.158;2022-09-03T05:06:51;96580.41;;;16.98;100.00
13434;BME280;6789;47.678;9.158;2022-09-03T05:11:57;96566.09;;;16.99;100.00
13434;BME280;6789;47.678;9.158;2022-09-03T05:17:03;96576.69;;;16.94;100.00
13434;BME280;6789;47.678;9.158;2022-09-03T05:22:09;96587.84;;;16.96;100.00
13434;BME280;6789;47.678;9.158;2022-09-03T05:27:16;96585.44;;;16.89;100.00
13434;BME280;6789;47.678;9.158;2022-09-03T05:32:23;96582.78;;;16.99;100.00
13434;BME280;6789;47.678;9.158;2022-09-03T05:37:32;96590.22;;;16.97;100.00
13434;BME280;6789;47.678;9.158;2022-09-03T05:42:38;96596.31;;;16.93;100.00
13434;BME280;6789;47.678;9.158;2022-09-03T05:47:48;96589.41;;;17.07;100.00
13434;BME280;6789;47.678;9.158;2022-09-03T05:52:57;96588.59;;;17.16;100.00
13434;BME280;6789;47.678;9.158;2022-09-03T05:58:03;96583.81;;;17.33;100.00
13434;BME280;6789;47.678;9.158;2022-09-03T06:03:09;96588.50;;;17.56;100.00
13434;BME280;6789;47.678;9.158;2022-09-03T06:08:15;96584.16;;;17.75;100.00
13434;BME280;6789;47.678;9.158;2022-09-03T06:13:21;96582.44;;;17.98;100.00
13434;BME280;6789;47.678;9.158;2022-09-03T06:18:29;96576.78;;;18.25;100.00
13434;BME280;6789;47.678;9.158;2022-09-03T06:23:35;96572.88;;;18.51;100.00
13434;BME280;6789;47.678;9.158;2022-09-03T06:28:44;96566.38;;;18.66;100.00
13434;BME280;6789;47.678;9.158;2022-09-03T06:33:51;96561.56;;;18.68;100.00
13434;BME280;6789;47.678;9.158;2022-09-03T06:38:59;96550.09;;;18.73;99.21
13434;BME280;6789;47.678;9.158;2022-09-03T06:44:08;96551.78;;;18.64;99.43
13434;BME280;6789;47.678;9.158;2022-09-03T06:49:18;96541.03;;;18.46;99.11
13434;BME280;6789;47.678;9.158;2022-09-03T06:54:25;96539.66;;;18.53;100.00
13434;BME280;6789;47.678;9.158;2022-09-03T06:59:31;96533.78;;;18.56;99.07
13434;BME280;6789;47.678;9.158;2022-09-03T07:04:42;96541.38;;;18.67;98.05
13434;BME280;6789;47.678;9.158;2022-09-03T07:09:48;96538.84;;;18.81;96.22
13434;BME280;6789;47.678;9.158;2022-09-03T07:14:54;96530.78;;;19.19;97.14
13434;BME280;6789;47.678;9.158;2022-09-03T07:20:00;96521.22;;;19.41;95.86
13434;BME280;6789;47.678;9.158;2022-09-03T07:25:06;96519.84;;;19.67;92.93
13434;BME280;6789;47.678;9.158;2022-09-03T07:30:12;96532.66;;;19.84;90.47
13434;BME280;6789;47.678;9.158;2022-09-03T07:35:18;96501.81;;;19.41;91.70
13434;BME280;6789;47.678;9.158;2022-09-03T07:40:24;96511.22;;;19.75;92.48
13434;BME280;6789;47.678;9.158;2022-09-03T07:46:03;96506.34;;;20.01;90.86
13434;BME280;6789;47.678;9.158;2022-09-03T07:51:11;96499.59;;;20.08;89.95
13434;BME280;6789;47.678;9.158;2022-09-03T07:56:17;96501.53;;;20.03;90.19
13434;BME280;6789;47.678;9.158;2022-09-03T08:01:26;96505.72;;;20.08;89.13
13434;BME280;6789;47.678;9.158;2022-09-03T08:06:38;96502.88;;;20.18;87.42
13434;BME280;6789;47.678;9.158;2022-09-03T08:11:45;96505.09;;;20.48;86.65
13434;BME280;6789;47.678;9.158;2022-09-03T08:16:55;96520.78;;;20.31;85.96
13434;BME280;6789;47.678;9.158;2022-09-03T08:22:24;96523.22;;;21.10;82.29
13434;BME280;6789;47.678;9.158;2022-09-03T08:28:00;96527.41;;;21.69;78.08
13434;BME280;6789;47.678;9.158;2022-09-03T08:33:16;96536.31;;;21.78;76.73
13434;BME280;6789;47.678;9.158;2022-09-03T08:38:23;96526.91;;;21.41;78.84
13434;BME280;6789;47.678;9.158;2022-09-03T08:43:37;96517.72;;;21.60;79.50
13434;BME280;6789;47.678;9.158;2022-09-03T09:06:52;96540.06;;;21.77;78.53
13434;BME280;6789;47.678;9.158;2022-09-03T09:12:25;96534.63;;;21.69;79.46
13434;BME280;6789;47.678;9.158;2022-09-03T09:23:43;96562.66;;;21.93;76.69
13434;BME280;6789;47.678;9.158;2022-09-03T09:29:09;96546.19;;;21.91;76.91
13434;BME280;6789;47.678;9.158;2022-09-03T09:34:26;96555.38;;;21.85;76.73
13434;BME280;6789;47.678;9.158;2022-09-03T09:39:34;96546.19;;;21.91;75.78
13434;BME280;6789;47.678;9.158;2022-09-03T09:44:41;96545.84;;;22.06;74.70
13434;BME280;6789;47.678;9.158;2022-09-03T09:50:17;96542.00;;;22.69;72.69
13434;BME280;6789;47.678;9.158;2022-09-03T09:56:07;96547.56;;;23.03;69.59
13434;BME280;6789;47.678;9.158;2022-09-03T10:01:23;96540.19;;;23.47;68.75
13434;BME280;6789;47.678;9.158;2022-09-03T10:06:35;96545.16;;;23.71;67.56
13434;BME280;6789;47.678;9.158;2022-09-03T10:23:22;96632.47;;;23.11;69.40
13434;BME280;6789;47.678;9.158;2022-09-03T10:28:31;96647.94;;;22.17;80.64
13434;BME280;6789;47.678;9.158;2022-09-03T10:34:20;96651.50;;;20.95;88.68
13434;BME280;6789;47.678;9.158;2022-09-03T10:39:58;96651.50;;;20.58;90.63
13434;BME280;6789;47.678;9.158;2022-09-03T10:50:56;96642.41;;;20.96;94.36
13434;BME280;6789;47.678;9.158;2022-09-03T10:56:25;96643.28;;;20.91;92.41
13434;BME280;6789;47.678;9.158;2022-09-03T11:07:07;96626.91;;;21.30;91.62
13434;BME280;6789;47.678;9.158;2022-09-03T11:12:39;96611.56;;;21.67;91.54
13434;BME280;6789;47.678;9.158;2022-09-03T11:17:57;96597.47;;;22.28;89.08
13434;BME280;6789;47.678;9.158;2022-09-03T11:23:10;96602.31;;;22.40;86.11
13434;BME280;6789;47.678;9.158;2022-09-03T11:34:24;96603.63;;;23.30;79.86
13434;BME280;6789;47.678;9.158;2022-09-03T11:39:39;96604.00;;;23.15;77.91
13434;BME280;6789;47.678;9.158;2022-09-03T11:50:31;96619.72;;;23.38;76.56
13434;BME280;6789;47.678;9.158;2022-09-03T12:01:17;96624.63;;;23.45;68.56
13434;BME280;6789;47.678;9.158;2022-09-03T12:18:21;96620.28;;;23.57;62.60
13434;BME280;6789;47.678;9.158;2022-09-03T12:23:51;96614.75;;;23.84;62.16
13434;BME280;6789;47.678;9.158;2022-09-03T12:28:59;96612.53;;;23.86;59.53
13434;BME280;6789;47.678;9.158;2022-09-03T12:34:18;96614.59;;;23.80;58.71
13434;BME280;6789;47.678;9.158;2022-09-03T12:39:28;96605.66;;;23.93;59.64
13434;BME280;6789;47.678;9.158;2022-09-03T12:50:24;96623.28;;;23.94;57.53
13434;BME280;6789;47.678;9.158;2022-09-03T12:55:52;96623.53;;;24.23;55.51
13434;BME280;6789;47.678;9.158;2022-09-03T13:01:43;96623.91;;;24.72;55.51
13434;BME280;6789;47.678;9.158;2022-09-03T13:07:29;96617.63;;;24.60;53.82
13434;BME280;6789;47.678;9.158;2022-09-03T13:13:28;96614.72;;;24.40;54.42
13434;BME280;6789;47.678;9.158;2022-09-03T13:46:06;96592.34;;;24.44;56.52
13434;BME280;6789;47.678;9.158;2022-09-03T13:51:27;96589.47;;;24.41;56.61
13434;BME280;6789;47.678;9.158;2022-09-03T13:57:19;96585.31;;;23.92;57.12
13434;BME280;6789;47.678;9.158;2022-09-03T14:03:14;96571.69;;;23.42;59.18
13434;BME280;6789;47.678;9.158;2022-09-03T14:08:52;96566.06;;;23.52;60.55
13434;BME280;6789;47.678;9.158;2022-09-03T14:25:33;96558.47;;;23.37;63.80
13434;BME280;6789;47.678;9.158;2022-09-03T14:49:03;96568.09;;;23.85;61.16
13434;BME280;6789;47.678;9.158;2022-09-03T15:00:57;96555.84;;;24.09;59.27
13434;BME280;6789;47.678;9.158;2022-09-03T15:12:32;96543.06;;;23.98;59.41
13434;BME280;6789;47.678;9.158;2022-09-03T15:24:50;96539.31;;;23.60;60.32
13434;BME280;6789;47.678;9.158;2022-09-03T15:30:18;96549.22;;;23.51;60.87
13434;BME280;6789;47.678;9.158;2022-09-03T15:36:40;96543.22;;;23.54;60.39
13434;BME280;6789;47.678;9.158;2022-09-03T15:42:13;96554.72;;;23.46;60.28
13434;BME280;6789;47.678;9.158;2022-09-03T15:59:34;96562.09;;;23.41;61.76
13434;BME280;6789;47.678;9.158;2022-09-03T16:05:46;96558.03;;;23.52;61.26
13434;BME280;6789;47.678;9.158;2022-09-03T16:11:17;96557.41;;;23.55;61.90
13434;BME280;6789;47.678;9.158;2022-09-03T16:22:47;96555.28;;;22.83;71.94
13434;BME280;6789;47.678;9.158;2022-09-03T16:39:38;96562.94;;;22.19;75.53
13434;BME280;6789;47.678;9.158;2022-09-03T16:45:29;96577.31;;;22.09;74.52
13434;BME280;6789;47.678;9.158;2022-09-03T17:31:43;96587.88;;;21.20;80.09
13434;BME280;6789;47.678;9.158;2022-09-03T17:43:43;96583.34;;;21.02;81.48
13434;BME280;6789;47.678;9.158;2022-09-03T17:49:07;96582.25;;;20.90;82.21
13434;BME280;6789;47.678;9.158;2022-09-03T18:06:11;96591.72;;;20.64;84.43
13434;BME280;6789;47.678;9.158;2022-09-03T18:11:36;96591.06;;;20.54;85.47
13434;BME280;6789;47.678;9.158;2022-09-03T18:22:38;96617.59;;;20.27;87.74
13434;BME280;6789;47.678;9.158;2022-09-03T18:28:18;96620.44;;;20.12;88.82
13434;BME280;6789;47.678;9.158;2022-09-03T18:33:56;96621.72;;;19.91;90.70
13434;BME280;6789;47.678;9.158;2022-09-03T18:39:30;96632.22;;;19.83;91.36
13434;BME280;6789;47.678;9.158;2022-09-03T18:45:37;96631.59;;;19.67;92.24
13434;BME280;6789;47.678;9.158;2022-09-03T18:51:35;96649.53;;;19.57;93.16
13434;BME280;6789;47.678;9.158;2022-09-03T18:57:20;96657.94;;;19.45;93.28
13434;BME280;6789;47.678;9.158;2022-09-03T19:08:36;96664.78;;;19.23;94.57
13434;BME280;6789;47.678;9.158;2022-09-03T19:20:31;96676.09;;;19.05;95.96
13434;BME280;6789;47.678;9.158;2022-09-03T19:26:27;96675.66;;;18.93;98.02
13434;BME280;6789;47.678;9.158;2022-09-03T19:32:16;96667.19;;;18.86;98.11
13434;BME280;6789;47.678;9.158;2022-09-03T19:44:39;96681.13;;;18.68;99.77
13434;BME280;6789;47.678;9.158;2022-09-03T19:50:40;96684.81;;;18.72;100.00
13434;BME280;6789;47.678;9.158;2022-09-03T19:56:59;96696.91;;;18.50;100.00
13434;BME280;6789;47.678;9.158;2022-09-03T20:02:25;96698.56;;;18.41;100.00
13434;BME280;6789;47.678;9.158;2022-09-03T20:08:02;96712.66;;;18.37;100.00
13434;BME280;6789;47.678;9.158;2022-09-03T20:37:27;96724.94;;;18.13;100.00
13434;BME280;6789;47.678;9.158;2022-09-03T21:02:31;96737.22;;;17.94;100.00
13434;BME280;6789;47.678;9.158;2022-09-03T21:14:18;96743.38;;;17.50;100.00
13434;BME280;6789;47.678;9.158;2022-09-03T21:20:26;96747.38;;;17.37;100.00
13434;BME280;6789;47.678;9.158;2022-09-03T21:25:41;96744.97;;;17.31;100.00
13434;BME280;6789;47.678;9.158;2022-09-03T21:32:07;96758.50;;;17.19;100.00
13434;BME280;6789;47.678;9.158;2022-09-03T21:37:22;96752.66;;;17.13;100.00
13434;BME280;6789;47.678;9.158;2022-09-03T21:43:23;96768.81;;;17.11;100.00
13434;BME280;6789;47.678;9.158;2022-09-03T21:49:11;96771.97;;;17.13;100.00
13434;BME280;6789;47.678;9.158;2022-09-03T21:54:50;96769.59;;;17.16;100.00
13434;BME280;6789;47.678;9.158;2022-09-03T22:00:38;96777.81;;;17.15;100.00
13434;BME280;6789;47.678;9.158;2022-09-03T22:06:37;96784.69;;;17.06;100.00
13434;BME280;6789;47.678;9.158;2022-09-03T22:59:36;96812.63;;;16.47;100.00
13434;BME280;6789;47.678;9.158;2022-09-03T23:11:25;96823.69;;;16.40;100.00
13434;BME280;6789;47.678;9.158;2022-09-03T23:17:27;96827.66;;;16.37;100.00
13434;BME280;6789;47.678;9.158;2022-09-03T23:23:46;96829.72;;;16.30;100.00
13434;BME280;6789;47.678;9.158;2022-09-03T23:30:11;96833.38;;;16.24;100.00
13434;BME280;6789;47.678;9.158;2022-09-03T23:41:29;96837.84;;;16.19;100.00
13434;BME280;6789;47.678;9.158;2022-09-03T23:47:19;96840.75;;;16.17;100.00
13434;BME280;6789;47.678;9.158;2022-09-03T23:53:39;96845.00;;;16.18;100.00
